createdAt,value
2022-09-23T00:01:01.870Z,1006.6
2022-09-23T00:02:18.914Z,1006.6
2022-09-23T00:03:35.853Z,1006.6
2022-09-23T00:04:52.839Z,1006.7
2022-09-23T00:06:09.798Z,1006.7
2022-09-23T00:07:26.804Z,1006.7
2022-09-23T00:08:43.846Z,1006.7
2022-09-23T00:10:00.940Z,1006.7
2022-09-23T00:11:17.815Z,1006.7
2022-09-23T00:12:34.821Z,1006.7
2022-09-23T00:13:51.806Z,1006.7
2022-09-23T00:15:08.866Z,1006.6
2022-09-23T00:16:25.896Z,1006.6
2022-09-23T00:17:43.284Z,1006.6
2022-09-23T00:19:00.931Z,1006.6
2022-09-23T00:20:17.831Z,1006.5
2022-09-23T00:21:34.818Z,1006.5
2022-09-23T00:22:51.829Z,1006.5
2022-09-23T00:24:08.923Z,1006.5
2022-09-23T00:25:25.869Z,1006.5
2022-09-23T00:26:42.871Z,1006.5
2022-09-23T00:27:59.856Z,1006.5
2022-09-23T00:29:16.868Z,1006.5
2022-09-23T00:30:33.885Z,1006.5
2022-09-23T00:31:50.857Z,1006.4
2022-09-23T00:33:07.880Z,1006.4
2022-09-23T00:34:24.834Z,1006.4
2022-09-23T00:35:41.864Z,1006.4
2022-09-23T00:36:58.844Z,1006.4
2022-09-23T00:38:15.851Z,1006.4
2022-09-23T00:39:32.919Z,1006.4
2022-09-23T00:40:50.066Z,1006.5
2022-09-23T00:42:06.888Z,1006.5
2022-09-23T00:43:23.862Z,1006.4
2022-09-23T00:44:40.906Z,1006.4
2022-09-23T00:45:57.932Z,1006.4
2022-09-23T00:47:14.923Z,1006.4
2022-09-23T00:48:31.860Z,1006.4
2022-09-23T00:49:48.873Z,1006.4
2022-09-23T00:51:05.939Z,1006.4
2022-09-23T00:52:22.913Z,1006.4
2022-09-23T00:53:39.870Z,1006.4
2022-09-23T00:54:56.873Z,1006.4
2022-09-23T00:56:13.904Z,1006.4
2022-09-23T00:57:30.906Z,1006.4
2022-09-23T00:58:47.882Z,1006.4
2022-09-23T01:00:04.989Z,1006.4
2022-09-23T01:01:22.079Z,1006.3
2022-09-23T01:02:38.960Z,1006.3
2022-09-23T01:03:55.909Z,1006.3
2022-09-23T01:05:12.949Z,1006.3
2022-09-23T01:06:29.919Z,1006.3
2022-09-23T01:07:46.914Z,1006.3
2022-09-23T01:09:03.899Z,1006.3
2022-09-23T01:10:20.938Z,1006.3
2022-09-23T01:11:37.913Z,1006.3
2022-09-23T01:12:54.896Z,1006.3
2022-09-23T01:14:11.915Z,1006.3
2022-09-23T01:15:29.006Z,1006.3
2022-09-23T01:16:46.007Z,1006.3
2022-09-23T01:18:02.924Z,1006.3
2022-09-23T01:19:19.909Z,1006.3
2022-09-23T01:20:36.969Z,1006.3
2022-09-23T01:21:53.911Z,1006.2
2022-09-23T01:23:10.961Z,1006.2
2022-09-23T01:24:27.918Z,1006.2
2022-09-23T01:25:44.979Z,1006.2
2022-09-23T01:27:01.952Z,1006.2
2022-09-23T01:28:18.911Z,1006.2
2022-09-23T01:29:35.965Z,1006.2
2022-09-23T01:30:53.004Z,1006.1
2022-09-23T01:32:09.921Z,1006.1
2022-09-23T01:33:26.948Z,1006.1
2022-09-23T01:34:43.925Z,1006.1
2022-09-23T01:36:01.044Z,1006.1
2022-09-23T01:37:17.930Z,1006
2022-09-23T01:38:34.948Z,1006.1
2022-09-23T01:39:51.938Z,1006.1
2022-09-23T01:41:08.954Z,1006.1
2022-09-23T01:42:26.030Z,1006.1
2022-09-23T01:43:42.938Z,1006.1
2022-09-23T01:45:00.003Z,1006.1
2022-09-23T01:46:16.938Z,1006.1
2022-09-23T01:47:33.946Z,1006.1
2022-09-23T01:48:50.973Z,1006
2022-09-23T01:50:07.998Z,1006
2022-09-23T01:51:24.964Z,1006
2022-09-23T01:52:41.957Z,1006
2022-09-23T01:53:58.956Z,1006
2022-09-23T01:55:16.570Z,1006
2022-09-23T01:56:33.962Z,1006
2022-09-23T01:57:51.003Z,1006
2022-09-23T01:59:07.972Z,1006
2022-09-23T02:00:25.001Z,1006
2022-09-23T02:01:42.014Z,1006
2022-09-23T02:02:58.968Z,1006
2022-09-23T02:04:16.083Z,1006
2022-09-23T02:05:32.975Z,1006
2022-09-23T02:06:49.985Z,1006
2022-09-23T02:08:07.527Z,1006
2022-09-23T02:09:25.005Z,1006
2022-09-23T02:10:41.966Z,1006
2022-09-23T02:11:58.990Z,1005.9
2022-09-23T02:13:16.041Z,1005.9
2022-09-23T02:14:32.990Z,1005.9
2022-09-23T02:15:49.989Z,1005.9
2022-09-23T02:17:07.018Z,1006
2022-09-23T02:18:24.045Z,1006
2022-09-23T02:19:41.257Z,1006
2022-09-23T02:20:58.004Z,1006
2022-09-23T02:22:15.013Z,1005.9
2022-09-23T02:23:32.034Z,1005.9
2022-09-23T02:24:49.042Z,1005.9
2022-09-23T02:26:06.032Z,1005.9
2022-09-23T02:27:23.030Z,1005.9
2022-09-23T02:28:40.096Z,1005.9
2022-09-23T02:29:57.015Z,1005.9
2022-09-23T02:31:14.038Z,1005.9
2022-09-23T02:32:31.049Z,1006
2022-09-23T02:33:48.040Z,1005.9
2022-09-23T02:35:05.049Z,1005.9
2022-09-23T02:36:22.030Z,1005.9
2022-09-23T02:37:39.019Z,1005.9
2022-09-23T02:38:56.051Z,1005.9
2022-09-23T02:40:13.125Z,1005.9
2022-09-23T02:41:30.007Z,1005.9
2022-09-23T02:42:47.012Z,1005.9
2022-09-23T02:44:04.085Z,1005.9
2022-09-23T02:45:21.068Z,1005.9
2022-09-23T02:46:38.036Z,1005.9
2022-09-23T02:47:55.052Z,1005.9
2022-09-23T02:49:12.071Z,1005.9
2022-09-23T02:50:29.105Z,1005.9
2022-09-23T02:51:46.079Z,1005.8
2022-09-23T02:53:03.057Z,1005.8
2022-09-23T02:54:20.073Z,1005.8
2022-09-23T02:55:37.058Z,1005.8
2022-09-23T03:00:54.197Z,1005.9
2022-09-23T03:02:11.175Z,1005.9
2022-09-23T03:03:28.064Z,1005.9
2022-09-23T03:04:45.058Z,1005.9
2022-09-23T03:06:02.079Z,1005.9
2022-09-23T03:07:19.084Z,1005.9
2022-09-23T03:08:36.061Z,1005.8
2022-09-23T03:09:53.092Z,1005.8
2022-09-23T03:11:10.056Z,1005.8
2022-09-23T03:12:27.102Z,1005.8
2022-09-23T03:13:44.067Z,1005.8
2022-09-23T03:15:01.102Z,1005.8
2022-09-23T03:16:18.199Z,1005.8
2022-09-23T03:17:35.181Z,1005.8
2022-09-23T03:18:52.066Z,1005.8
2022-09-23T03:20:09.070Z,1005.8
2022-09-23T03:21:26.089Z,1005.8
2022-09-23T03:22:43.132Z,1005.8
2022-09-23T03:24:00.096Z,1005.8
2022-09-23T03:25:17.078Z,1005.7
2022-09-23T03:26:34.092Z,1005.7
2022-09-23T03:27:51.114Z,1005.7
2022-09-23T03:29:08.094Z,1005.7
2022-09-23T03:30:25.134Z,1005.7
2022-09-23T03:31:42.166Z,1005.7
2022-09-23T03:32:59.088Z,1005.7
2022-09-23T03:34:16.105Z,1005.6
2022-09-23T03:35:33.154Z,1005.6
2022-09-23T03:36:50.099Z,1005.6
2022-09-23T03:38:07.119Z,1005.6
2022-09-23T03:39:24.104Z,1005.6
2022-09-23T03:40:41.250Z,1005.7
2022-09-23T03:41:58.106Z,1005.7
2022-09-23T03:43:15.126Z,1005.7
2022-09-23T03:44:32.116Z,1005.7
2022-09-23T03:45:49.179Z,1005.7
2022-09-23T03:47:06.135Z,1005.6
2022-09-23T03:48:23.109Z,1005.6
2022-09-23T03:49:40.116Z,1005.6
2022-09-23T03:50:57.173Z,1005.6
2022-09-23T03:52:14.136Z,1005.6
2022-09-23T03:53:31.129Z,1005.6
2022-09-23T03:54:48.110Z,1005.6
2022-09-23T03:56:05.149Z,1005.5
2022-09-23T03:57:22.216Z,1005.6
2022-09-23T03:58:39.251Z,1005.5
2022-09-23T03:59:56.143Z,1005.6
2022-09-23T04:01:13.225Z,1005.5
2022-09-23T04:02:30.212Z,1005.6
2022-09-23T04:03:47.151Z,1005.6
2022-09-23T04:05:04.185Z,1005.5
2022-09-23T04:06:21.144Z,1005.5
2022-09-23T04:07:38.211Z,1005.5
2022-09-23T04:08:55.147Z,1005.5
2022-09-23T04:10:12.152Z,1005.5
2022-09-23T04:11:29.159Z,1005.5
2022-09-23T04:12:46.184Z,1005.5
2022-09-23T04:14:03.213Z,1005.5
2022-09-23T04:15:20.184Z,1005.5
2022-09-23T04:16:37.365Z,1005.5
2022-09-23T04:17:54.183Z,1005.6
2022-09-23T04:19:11.770Z,1005.5
2022-09-23T04:20:28.173Z,1005.5
2022-09-23T04:21:45.182Z,1005.5
2022-09-23T04:23:02.172Z,1005.5
2022-09-23T04:24:19.181Z,1005.5
2022-09-23T04:25:36.188Z,1005.5
2022-09-23T04:26:53.220Z,1005.5
2022-09-23T04:28:10.178Z,1005.5
2022-09-23T04:29:27.231Z,1005.5
2022-09-23T04:30:44.191Z,1005.5
2022-09-23T04:32:01.279Z,1005.5
2022-09-23T04:33:18.193Z,1005.5
2022-09-23T04:34:35.234Z,1005.4
2022-09-23T04:35:52.197Z,1005.5
2022-09-23T04:37:09.194Z,1005.5
2022-09-23T04:38:26.232Z,1005.5
2022-09-23T04:39:43.222Z,1005.5
2022-09-23T04:41:00.184Z,1005.5
2022-09-23T04:42:17.220Z,1005.5
2022-09-23T04:43:34.221Z,1005.5
2022-09-23T04:44:51.206Z,1005.5
2022-09-23T04:46:08.283Z,1005.5
2022-09-23T04:47:25.211Z,1005.6
2022-09-23T04:48:42.225Z,1005.6
2022-09-23T04:50:00.016Z,1005.5
2022-09-23T04:51:16.264Z,1005.5
2022-09-23T04:52:33.240Z,1005.6
2022-09-23T04:53:50.201Z,1005.6
2022-09-23T04:55:11.019Z,1005.6
2022-09-23T04:56:24.223Z,1005.6
2022-09-23T04:57:41.258Z,1005.6
2022-09-23T04:58:58.346Z,1005.6
2022-09-23T05:00:15.221Z,1005.6
2022-09-23T05:01:32.291Z,1005.5
2022-09-23T05:02:49.243Z,1005.5
2022-09-23T05:04:06.316Z,1005.6
2022-09-23T05:05:23.218Z,1005.5
2022-09-23T05:06:40.223Z,1005.5
2022-09-23T05:07:57.271Z,1005.5
2022-09-23T05:09:14.220Z,1005.4
2022-09-23T05:10:31.246Z,1005.4
2022-09-23T05:11:48.238Z,1005.4
2022-09-23T05:13:05.193Z,1005.3
2022-09-23T05:14:22.501Z,1005.3
2022-09-23T05:15:39.256Z,1005.4
2022-09-23T05:16:56.246Z,1005.3
2022-09-23T05:18:14.530Z,1005.3
2022-09-23T05:19:30.295Z,1005.3
2022-09-23T05:20:47.247Z,1005.3
2022-09-23T05:22:05.327Z,1005.4
2022-09-23T05:23:22.386Z,1005.4
2022-09-23T05:24:39.277Z,1005.3
2022-09-23T05:25:56.270Z,1005.2
2022-09-23T05:27:13.261Z,1005.2
2022-09-23T05:28:30.284Z,1005.2
2022-09-23T05:29:47.259Z,1005.2
2022-09-23T05:31:04.434Z,1005.2
2022-09-23T05:32:21.257Z,1005.1
2022-09-23T05:33:38.313Z,1005.1
2022-09-23T05:34:55.281Z,1005
2022-09-23T05:36:12.262Z,1005
2022-09-23T05:37:29.259Z,1005
2022-09-23T05:38:46.298Z,1005.1
2022-09-23T05:40:03.483Z,1005.1
2022-09-23T05:41:20.274Z,1005
2022-09-23T05:42:37.328Z,1004.9
2022-09-23T05:43:54.303Z,1004.9
2022-09-23T05:45:11.283Z,1004.9
2022-09-23T05:46:28.320Z,1004.9
2022-09-23T05:47:45.310Z,1004.8
2022-09-23T05:49:03.436Z,1004.8
2022-09-23T05:50:19.311Z,1005
2022-09-23T05:51:36.334Z,1004.9
2022-09-23T05:52:53.313Z,1004.9
2022-09-23T05:54:10.373Z,1004.8
2022-09-23T05:55:27.315Z,1004.8
2022-09-23T05:56:44.308Z,1004.8
2022-09-23T05:58:01.386Z,1004.8
2022-09-23T05:59:18.307Z,1004.9
2022-09-23T06:00:35.299Z,1004.9
2022-09-23T06:01:56.258Z,1004.9
2022-09-23T06:03:09.436Z,1004.9
2022-09-23T06:04:26.345Z,1004.9
2022-09-23T06:05:43.423Z,1004.9
2022-09-23T06:07:03.205Z,1005
2022-09-23T06:08:17.328Z,1005
2022-09-23T06:09:36.645Z,1005
2022-09-23T06:10:54.266Z,1004.9
2022-09-23T06:12:08.323Z,1005
2022-09-23T06:13:25.377Z,1004.9
2022-09-23T06:14:42.327Z,1004.9
2022-09-23T06:15:59.378Z,1005
2022-09-23T06:17:16.324Z,1004.9
2022-09-23T06:18:33.365Z,1005
2022-09-23T06:19:50.328Z,1005
2022-09-23T06:21:07.362Z,1004.9
2022-09-23T06:22:24.345Z,1005
2022-09-23T06:23:41.979Z,1005
2022-09-23T06:24:58.354Z,1005.1
2022-09-23T06:26:15.394Z,1005.1
2022-09-23T06:27:32.297Z,1005.1
2022-09-23T06:28:49.279Z,1005.1
2022-09-23T06:30:06.456Z,1005.1
2022-09-23T06:31:23.323Z,1005.1
2022-09-23T06:32:40.299Z,1005.1
2022-09-23T06:34:08.928Z,1005.1
2022-09-23T06:35:24.380Z,1005.1
2022-09-23T06:36:41.780Z,1005.1
2022-09-23T06:37:49.315Z,1005.1
2022-09-23T06:39:06.375Z,1005.2
2022-09-23T06:40:23.390Z,1005.1
2022-09-23T06:41:40.383Z,1005.1
2022-09-23T06:42:57.322Z,1005.2
2022-09-23T06:44:14.342Z,1005.2
2022-09-23T06:45:31.324Z,1005.2
2022-09-23T06:46:48.439Z,1005.2
2022-09-23T06:48:05.318Z,1005.2
2022-09-23T06:49:22.548Z,1005.2
2022-09-23T06:50:39.333Z,1005.2
2022-09-23T06:51:57.297Z,1005.2
2022-09-23T06:53:14.339Z,1005.2
2022-09-23T06:54:32.416Z,1005.2
2022-09-23T06:55:49.325Z,1005.2
2022-09-23T06:57:06.396Z,1005.2
2022-09-23T06:58:23.350Z,1005.3
2022-09-23T06:59:40.324Z,1005.2
2022-09-23T07:00:57.342Z,1005.3
2022-09-23T07:02:14.468Z,1005.3
2022-09-23T07:03:31.400Z,1005.3
2022-09-23T07:04:48.423Z,1005.3
2022-09-23T07:06:05.356Z,1005.3
2022-09-23T07:07:22.403Z,1005.3
2022-09-23T07:08:39.380Z,1005.3
2022-09-23T07:09:57.195Z,1005.3
2022-09-23T07:11:14.350Z,1005.3
2022-09-23T07:12:31.407Z,1005.3
2022-09-23T07:13:48.403Z,1005.3
2022-09-23T07:15:05.414Z,1005.4
2022-09-23T07:16:22.457Z,1005.4
2022-09-23T07:17:39.374Z,1005.4
2022-09-23T07:18:56.414Z,1005.4
2022-09-23T07:20:13.403Z,1005.4
2022-09-23T07:21:30.387Z,1005.4
2022-09-23T07:22:47.403Z,1005.4
2022-09-23T07:24:04.384Z,1005.4
2022-09-23T07:25:21.427Z,1005.4
2022-09-23T07:26:41.155Z,1005.5
2022-09-23T07:27:55.440Z,1005.4
2022-09-23T07:29:12.394Z,1005.4
2022-09-23T07:30:29.425Z,1005.4
2022-09-23T07:31:46.442Z,1005.4
2022-09-23T07:33:08.049Z,1005.4
2022-09-23T07:34:20.407Z,1005.5
2022-09-23T07:35:37.397Z,1005.4
2022-09-23T07:36:54.413Z,1005.5
2022-09-23T07:38:11.442Z,1005.6
2022-09-23T07:39:28.440Z,1005.7
2022-09-23T07:40:46.297Z,1005.7
2022-09-23T07:42:03.455Z,1005.6
2022-09-23T07:43:20.410Z,1005.5
2022-09-23T07:44:37.530Z,1005.5
2022-09-23T07:45:54.498Z,1005.4
2022-09-23T07:47:11.522Z,1005.4
2022-09-23T07:48:31.994Z,1005.5
2022-09-23T07:49:45.481Z,1005.5
2022-09-23T07:51:02.464Z,1005.5
2022-09-23T07:52:19.436Z,1005.5
2022-09-23T07:53:36.449Z,1005.5
2022-09-23T07:54:53.462Z,1005.5
2022-09-23T07:56:10.494Z,1005.5
2022-09-23T07:57:27.523Z,1005.5
2022-09-23T07:58:44.447Z,1005.5
2022-09-23T08:00:01.494Z,1005.5
2022-09-23T08:01:18.614Z,1005.5
2022-09-23T08:02:35.501Z,1005.5
2022-09-23T08:03:52.489Z,1005.5
2022-09-23T08:05:09.652Z,1005.4
2022-09-23T08:06:26.474Z,1005.5
2022-09-23T08:07:43.447Z,1005.4
2022-09-23T08:09:00.616Z,1005.4
2022-09-23T08:10:17.544Z,1005.4
2022-09-23T08:11:34.517Z,1005.4
2022-09-23T08:12:51.514Z,1005.4
2022-09-23T08:14:08.462Z,1005.4
2022-09-23T08:15:26.352Z,1005.4
2022-09-23T08:16:43.518Z,1005.4
2022-09-23T08:18:00.528Z,1005.4
2022-09-23T08:19:17.592Z,1005.4
2022-09-23T08:20:34.597Z,1005.4
2022-09-23T08:21:52.379Z,1005.4
2022-09-23T08:23:09.497Z,1005.3
2022-09-23T08:24:26.504Z,1005.3
2022-09-23T08:25:45.595Z,1005.3
2022-09-23T08:27:00.541Z,1005.3
2022-09-23T08:28:17.497Z,1005.3
2022-09-23T08:29:34.556Z,1005.3
2022-09-23T08:30:51.605Z,1005.4
2022-09-23T08:32:08.594Z,1005.4
2022-09-23T08:33:25.515Z,1005.4
2022-09-23T08:34:42.502Z,1005.4
2022-09-23T08:35:59.768Z,1005.4
2022-09-23T08:37:17.274Z,1005.5
2022-09-23T08:38:34.610Z,1005.5
2022-09-23T08:39:52.529Z,1005.5
2022-09-23T08:41:09.546Z,1005.5
2022-09-23T08:42:26.512Z,1005.6
2022-09-23T08:43:43.507Z,1005.7
2022-09-23T08:45:00.507Z,1005.5
2022-09-23T08:46:17.604Z,1005.5
2022-09-23T08:47:34.789Z,1005.4
2022-09-23T08:48:51.513Z,1005.5
2022-09-23T08:50:08.539Z,1005.5
2022-09-23T08:51:25.561Z,1005.5
2022-09-23T08:52:42.544Z,1005.4
2022-09-23T08:53:59.725Z,1005.5
2022-09-23T08:55:16.562Z,1005.5
2022-09-23T08:56:35.370Z,1005.5
2022-09-23T08:58:08.145Z,1005.5
2022-09-23T08:59:07.541Z,1005.4
2022-09-23T09:00:25.391Z,1005.5
2022-09-23T09:01:42.615Z,1005.5
2022-09-23T09:02:59.556Z,1005.4
2022-09-23T09:04:17.251Z,1005.4
2022-09-23T09:05:34.594Z,1005.4
2022-09-23T09:06:53.828Z,1005.4
2022-09-23T09:08:08.543Z,1005.5
2022-09-23T09:09:25.581Z,1005.5
2022-09-23T09:10:42.593Z,1005.5
2022-09-23T09:12:00.410Z,1005.5
2022-09-23T09:13:17.562Z,1005.5
2022-09-23T09:14:34.571Z,1005.5
2022-09-23T09:15:51.650Z,1005.5
2022-09-23T09:17:08.606Z,1005.5
2022-09-23T09:18:25.673Z,1005.5
2022-09-23T09:19:42.622Z,1005.5
2022-09-23T09:20:59.583Z,1005.5
2022-09-23T09:22:17.352Z,1005.5
2022-09-23T09:23:34.663Z,1005.5
2022-09-23T09:24:51.596Z,1005.5
2022-09-23T09:26:08.604Z,1005.5
2022-09-23T09:27:25.625Z,1005.5
2022-09-23T09:28:42.599Z,1005.5
2022-09-23T09:29:59.594Z,1005.5
2022-09-23T09:31:16.725Z,1005.5
2022-09-23T09:32:33.646Z,1005.5
2022-09-23T09:33:50.614Z,1005.5
2022-09-23T09:35:07.599Z,1005.5
2022-09-23T09:36:25.637Z,1005.5
2022-09-23T09:37:42.673Z,1005.5
2022-09-23T09:38:59.695Z,1005.5
2022-09-23T09:40:17.604Z,1005.5
2022-09-23T09:41:34.691Z,1005.5
2022-09-23T09:42:51.842Z,1005.5
2022-09-23T09:44:08.653Z,1005.5
2022-09-23T09:45:25.710Z,1005.5
2022-09-23T09:46:42.718Z,1005.5
2022-09-23T09:47:59.657Z,1005.5
2022-09-23T09:49:16.663Z,1005.5
2022-09-23T09:50:34.445Z,1005.5
2022-09-23T09:51:52.617Z,1005.5
2022-09-23T09:53:09.649Z,1005.5
2022-09-23T09:54:26.609Z,1005.5
2022-09-23T09:55:43.600Z,1005.5
2022-09-23T09:57:00.667Z,1005.5
2022-09-23T09:58:17.624Z,1005.5
2022-09-23T09:59:34.628Z,1005.5
2022-09-23T10:00:51.646Z,1005.4
2022-09-23T10:02:08.601Z,1005.4
2022-09-23T10:03:25.663Z,1005.4
2022-09-23T10:04:42.922Z,1005.4
2022-09-23T10:05:59.655Z,1005.4
2022-09-23T10:07:16.616Z,1005.4
2022-09-23T10:08:33.628Z,1005.4
2022-09-23T10:09:50.631Z,1005.4
2022-09-23T10:11:07.705Z,1005.4
2022-09-23T10:12:24.661Z,1005.5
2022-09-23T10:13:41.615Z,1005.7
2022-09-23T10:14:59.169Z,1005.7
2022-09-23T10:16:15.793Z,1005.7
2022-09-23T10:17:32.706Z,1005.6
2022-09-23T10:18:49.658Z,1005.5
2022-09-23T10:20:06.656Z,1005.6
2022-09-23T10:21:27.672Z,1005.6
2022-09-23T10:22:40.647Z,1005.6
2022-09-23T10:23:57.660Z,1005.5
2022-09-23T10:25:14.691Z,1005.4
2022-09-23T10:26:31.659Z,1005.3
2022-09-23T10:27:48.723Z,1005.3
2022-09-23T10:29:05.763Z,1005.3
2022-09-23T10:30:23.018Z,1005.3
2022-09-23T10:31:39.660Z,1005.3
2022-09-23T10:32:56.709Z,1005.3
2022-09-23T10:34:13.683Z,1005.2
2022-09-23T10:35:30.688Z,1005.2
2022-09-23T10:36:48.747Z,1005.4
2022-09-23T10:38:05.662Z,1005.4
2022-09-23T10:39:22.708Z,1005.4
2022-09-23T10:40:39.981Z,1005.4
2022-09-23T10:41:56.747Z,1005.4
2022-09-23T10:43:13.689Z,1005.4
2022-09-23T10:44:30.692Z,1005.3
2022-09-23T10:45:47.729Z,1005.2
2022-09-23T10:47:04.670Z,1005.2
2022-09-23T10:48:21.707Z,1005.1
2022-09-23T10:49:38.780Z,1005.1
2022-09-23T10:50:55.708Z,1005.1
2022-09-23T10:52:12.682Z,1005.2
2022-09-23T10:53:29.772Z,1005.2
2022-09-23T10:54:46.738Z,1005.2
2022-09-23T10:56:03.689Z,1005
2022-09-23T10:57:20.696Z,1005.1
2022-09-23T10:58:38.507Z,1005
2022-09-23T10:59:55.782Z,1005
2022-09-23T11:01:12.782Z,1004.9
2022-09-23T11:02:29.766Z,1004.9
2022-09-23T11:03:46.727Z,1004.9
2022-09-23T11:05:03.860Z,1004.9
2022-09-23T11:06:20.739Z,1004.8
2022-09-23T11:07:37.789Z,1004.8
2022-09-23T11:08:54.725Z,1004.8
2022-09-23T11:10:23.119Z,1004.8
2022-09-23T11:11:28.720Z,1004.8
2022-09-23T11:12:45.794Z,1004.8
2022-09-23T11:14:02.784Z,1004.8
2022-09-23T11:15:19.768Z,1004.9
2022-09-23T11:16:36.835Z,1004.9
2022-09-23T11:17:54.248Z,1004.9
2022-09-23T11:19:10.730Z,1004.8
2022-09-23T11:20:28.504Z,1004.8
2022-09-23T11:21:45.823Z,1004.8
2022-09-23T11:23:03.414Z,1004.8
2022-09-23T11:24:20.758Z,1004.7
2022-09-23T11:25:37.846Z,1004.7
2022-09-23T11:26:54.795Z,1004.7
2022-09-23T11:28:11.781Z,1004.6
2022-09-23T11:29:28.862Z,1004.7
2022-09-23T11:30:45.851Z,1004.6
2022-09-23T11:32:02.865Z,1004.6
2022-09-23T11:33:19.860Z,1004.6
2022-09-23T11:34:36.822Z,1004.6
2022-09-23T11:35:53.817Z,1004.6
2022-09-23T11:37:10.784Z,1004.6
2022-09-23T11:38:27.815Z,1004.6
2022-09-23T11:39:44.799Z,1004.5
2022-09-23T11:41:01.853Z,1004.5
2022-09-23T11:42:18.806Z,1004.5
2022-09-23T11:43:35.869Z,1004.5
2022-09-23T11:44:52.863Z,1004.5
2022-09-23T11:46:10.018Z,1004.5
2022-09-23T11:47:26.825Z,1004.5
2022-09-23T11:48:43.869Z,1004.6
2022-09-23T11:50:00.798Z,1004.6
2022-09-23T11:51:18.987Z,1004.6
2022-09-23T11:52:35.803Z,1004.6
2022-09-23T11:53:52.833Z,1004.6
2022-09-23T11:55:19.139Z,1004.6
2022-09-23T11:56:34.496Z,1004.6
2022-09-23T11:57:48.764Z,1004.5
2022-09-23T11:59:00.945Z,1004.4
2022-09-23T12:00:17.922Z,1004.4
2022-09-23T12:01:37.793Z,1004.3
2022-09-23T12:03:01.193Z,1004.3
2022-09-23T12:04:18.215Z,1004.4
2022-09-23T12:05:26.041Z,1004.3
2022-09-23T12:06:42.860Z,1004.3
2022-09-23T12:07:59.837Z,1004.2
2022-09-23T12:09:16.900Z,1004.2
2022-09-23T12:10:33.848Z,1004.2
2022-09-23T12:11:50.848Z,1004.2
2022-09-23T12:13:07.843Z,1004.2
2022-09-23T12:14:24.885Z,1004.2
2022-09-23T12:15:41.938Z,1004.2
2022-09-23T12:16:58.904Z,1004.2
2022-09-23T12:18:18.432Z,1004.1
2022-09-23T12:19:32.977Z,1004.2
2022-09-23T12:20:49.862Z,1004.2
2022-09-23T12:22:06.860Z,1004.2
2022-09-23T12:23:23.869Z,1004.2
2022-09-23T12:24:40.945Z,1004.2
2022-09-23T12:25:57.897Z,1004.2
2022-09-23T12:27:14.890Z,1004.3
2022-09-23T12:28:31.893Z,1004.3
2022-09-23T12:29:48.878Z,1004.3
2022-09-23T12:31:07.013Z,1004.2
2022-09-23T12:32:23.913Z,1004.2
2022-09-23T12:33:40.895Z,1004.2
2022-09-23T12:34:57.952Z,1004.2
2022-09-23T12:36:14.914Z,1004.2
2022-09-23T12:37:31.902Z,1004.2
2022-09-23T12:38:48.901Z,1004.2
2022-09-23T12:40:06.046Z,1004.2
2022-09-23T12:41:22.948Z,1004.2
2022-09-23T12:42:39.928Z,1004.2
2022-09-23T12:43:56.930Z,1004.2
2022-09-23T12:45:13.907Z,1004.2
2022-09-23T12:46:30.923Z,1004.1
2022-09-23T12:47:47.971Z,1004.2
2022-09-23T12:49:04.930Z,1004.1
2022-09-23T12:50:24.329Z,1004.1
2022-09-23T12:51:38.905Z,1004.1
2022-09-23T12:52:55.982Z,1004
2022-09-23T12:54:12.910Z,1004
2022-09-23T12:55:29.922Z,1004
2022-09-23T12:56:46.922Z,1004
2022-09-23T12:58:03.994Z,1004.1
2022-09-23T12:59:20.931Z,1004.1
2022-09-23T13:00:37.984Z,1004.1
2022-09-23T13:01:55.107Z,1004.1
2022-09-23T13:03:12.016Z,1004.1
2022-09-23T13:04:28.944Z,1004
2022-09-23T13:05:45.960Z,1004
2022-09-23T13:07:03.153Z,1004
2022-09-23T13:08:19.993Z,1004
2022-09-23T13:09:36.969Z,1004
2022-09-23T13:10:54.007Z,1004
2022-09-23T13:12:11.009Z,1004
2022-09-23T13:13:27.963Z,1003.9
2022-09-23T13:14:44.962Z,1003.9
2022-09-23T13:16:02.094Z,1003.9
2022-09-23T13:17:18.991Z,1003.9
2022-09-23T13:18:35.974Z,1003.8
2022-09-23T13:19:52.973Z,1003.8
2022-09-23T13:21:10.093Z,1003.8
2022-09-23T13:22:27.030Z,1003.7
2022-09-23T13:23:44.018Z,1003.7
2022-09-23T13:25:00.981Z,1003.7
2022-09-23T13:26:18.492Z,1003.6
2022-09-23T13:27:34.991Z,1003.6
2022-09-23T13:28:52.013Z,1003.6
2022-09-23T13:30:09.143Z,1003.6
2022-09-23T13:31:26.023Z,1003.5
2022-09-23T13:32:43.059Z,1003.5
2022-09-23T13:34:00.155Z,1003.4
2022-09-23T13:35:17.003Z,1003.4
2022-09-23T13:36:33.988Z,1003.4
2022-09-23T13:37:50.997Z,1003.4
2022-09-23T13:39:08.014Z,1003.4
2022-09-23T13:40:25.067Z,1003.4
2022-09-23T13:41:42.010Z,1003.3
2022-09-23T13:42:59.040Z,1003.3
2022-09-23T13:44:16.007Z,1003.3
2022-09-23T13:45:33.161Z,1003.3
2022-09-23T13:46:50.010Z,1003.3
2022-09-23T13:48:07.080Z,1003.3
2022-09-23T13:49:24.025Z,1003.3
2022-09-23T13:50:41.048Z,1003.3
2022-09-23T13:51:58.044Z,1003.3
2022-09-23T13:53:15.037Z,1003.3
2022-09-23T13:54:32.038Z,1003.3
2022-09-23T13:55:52.425Z,1003.3
2022-09-23T13:57:06.087Z,1003.3
2022-09-23T13:58:23.027Z,1003.3
2022-09-23T13:59:40.061Z,1003.3
2022-09-23T14:00:57.109Z,1003.3
2022-09-23T14:02:14.124Z,1003.3
2022-09-23T14:03:35.326Z,1003.3
2022-09-23T14:04:48.083Z,1003.3
2022-09-23T14:06:05.045Z,1003.3
2022-09-23T14:07:22.075Z,1003.2
2022-09-23T14:08:39.068Z,1003.2
2022-09-23T14:09:56.098Z,1003.2
2022-09-23T14:11:13.073Z,1003.3
2022-09-23T14:12:30.135Z,1003.2
2022-09-23T14:13:47.185Z,1003.3
2022-09-23T14:15:04.258Z,1003.3
2022-09-23T14:16:21.144Z,1003.3
2022-09-23T14:17:38.251Z,1003.2
2022-09-23T14:18:55.105Z,1003.2
2022-09-23T14:20:12.127Z,1003.2
2022-09-23T14:21:30.122Z,1003.2
2022-09-23T14:22:47.135Z,1003.3
2022-09-23T14:24:04.112Z,1003.2
2022-09-23T14:25:21.094Z,1003.3
2022-09-23T14:26:38.582Z,1003.3
2022-09-23T14:27:58.534Z,1003.3
2022-09-23T14:29:12.188Z,1003.2
2022-09-23T14:30:29.170Z,1003.2
2022-09-23T14:31:47.321Z,1003.2
2022-09-23T14:33:08.582Z,1003.2
2022-09-23T14:34:22.182Z,1003.1
2022-09-23T14:35:39.096Z,1003.1
2022-09-23T14:36:56.163Z,1003.1
2022-09-23T14:38:13.102Z,1003.1
2022-09-23T14:39:30.140Z,1003
2022-09-23T14:40:47.215Z,1003
2022-09-23T14:42:04.196Z,1003
2022-09-23T14:43:21.154Z,1003
2022-09-23T14:44:38.135Z,1003
2022-09-23T14:45:55.218Z,1002.9
2022-09-23T14:47:12.366Z,1003
2022-09-23T14:48:29.383Z,1002.9
2022-09-23T14:49:46.664Z,1002.9
2022-09-23T14:51:03.232Z,1002.9
2022-09-23T14:52:20.156Z,1002.9
2022-09-23T14:53:37.228Z,1002.9
2022-09-23T14:54:54.143Z,1002.9
2022-09-23T14:56:11.166Z,1002.9
2022-09-23T14:57:28.164Z,1002.9
2022-09-23T14:58:48.194Z,1002.9
2022-09-23T15:00:02.521Z,1002.9
2022-09-23T15:01:20.941Z,1002.8
2022-09-23T15:02:38.681Z,1002.8
2022-09-23T15:03:56.474Z,1002.8
2022-09-23T15:05:14.224Z,1002.8
2022-09-23T15:06:31.856Z,1002.7
2022-09-23T15:07:49.447Z,1002.7
2022-09-23T15:09:07.249Z,1002.7
2022-09-23T15:10:24.176Z,1002.7
2022-09-23T15:11:41.271Z,1002.7
2022-09-23T15:12:58.215Z,1002.7
2022-09-23T15:14:36.467Z,1002.8
2022-09-23T15:15:32.182Z,1002.8
2022-09-23T15:16:49.272Z,1002.8
2022-09-23T15:18:06.176Z,1002.8
2022-09-23T15:19:23.571Z,1002.7
2022-09-23T15:20:40.253Z,1002.8
2022-09-23T15:21:57.287Z,1002.8
2022-09-23T15:23:14.242Z,1002.8
2022-09-23T15:24:31.189Z,1002.8
2022-09-23T15:25:48.234Z,1002.8
2022-09-23T15:27:05.235Z,1002.8
2022-09-23T15:28:22.242Z,1002.7
2022-09-23T15:29:39.198Z,1002.7
2022-09-23T15:30:56.263Z,1002.7
2022-09-23T15:32:13.209Z,1002.7
2022-09-23T15:33:30.248Z,1002.7
2022-09-23T15:34:47.222Z,1002.8
2022-09-23T15:36:04.240Z,1002.7
2022-09-23T15:37:21.237Z,1002.7
2022-09-23T15:38:38.242Z,1002.7
2022-09-23T15:39:55.235Z,1002.7
2022-09-23T15:41:12.221Z,1002.7
2022-09-23T15:42:29.221Z,1002.6
2022-09-23T15:43:46.261Z,1002.6
2022-09-23T15:45:03.345Z,1002.6
2022-09-23T15:46:20.332Z,1002.6
2022-09-23T15:47:37.236Z,1002.7
2022-09-23T15:48:58.420Z,1002.6
2022-09-23T15:50:11.239Z,1002.6
2022-09-23T15:51:28.389Z,1002.6
2022-09-23T15:52:45.275Z,1002.6
2022-09-23T15:54:02.293Z,1002.6
2022-09-23T15:55:19.246Z,1002.6
2022-09-23T15:56:36.313Z,1002.6
2022-09-23T15:57:53.278Z,1002.6
2022-09-23T15:59:10.252Z,1002.7
2022-09-23T16:00:27.308Z,1002.7
2022-09-23T16:01:44.378Z,1002.7
2022-09-23T16:03:01.302Z,1002.6
2022-09-23T16:04:18.285Z,1002.7
2022-09-23T16:05:35.266Z,1002.6
2022-09-23T16:06:52.293Z,1002.7
2022-09-23T16:08:09.660Z,1002.7
2022-09-23T16:09:26.321Z,1002.7
2022-09-23T16:10:43.283Z,1002.7